createdAt,value
2022-11-12T00:01:07.095Z,7.30
2022-11-12T00:03:34.740Z,7.30
2022-11-12T00:06:01.965Z,7.30
2022-11-12T00:08:29.519Z,7.30
2022-11-12T00:10:56.933Z,7.30
2022-11-12T00:13:23.949Z,7.30
2022-11-12T00:15:50.917Z,7.30
2022-11-12T00:18:17.903Z,7.30
2022-11-12T00:20:45.249Z,7.40
2022-11-12T00:23:12.278Z,7.40
2022-11-12T00:25:42.456Z,7.40
2022-11-12T00:28:10.998Z,7.40
2022-11-12T00:30:39.784Z,7.40
2022-11-12T00:33:07.247Z,7.40
2022-11-12T00:35:34.724Z,7.40
2022-11-12T00:38:01.968Z,7.40
2022-11-12T00:40:29.812Z,7.40
2022-11-12T00:42:56.987Z,7.30
2022-11-12T00:45:24.005Z,7.30
2022-11-12T00:47:55.128Z,7.20
2022-11-12T00:50:24.090Z,7.30
2022-11-12T00:52:55.132Z,7.30
2022-11-12T00:55:21.965Z,7.30
2022-11-12T00:57:51.576Z,7.30
2022-11-12T01:00:19.494Z,7.30
2022-11-12T01:02:51.040Z,7.40
2022-11-12T01:05:19.847Z,7.30
2022-11-12T01:07:50.483Z,7.30
2022-11-12T01:10:20.146Z,7.30
2022-11-12T01:12:47.079Z,7.30
2022-11-12T01:15:13.971Z,7.30
2022-11-12T01:17:40.878Z,7.30
2022-11-12T01:20:08.218Z,7.30
2022-11-12T01:22:35.379Z,7.40
2022-11-12T01:25:02.242Z,7.30
2022-11-12T01:27:29.144Z,7.30
2022-11-12T01:29:55.999Z,7.30
2022-11-12T01:32:22.874Z,7.30
2022-11-12T01:34:51.623Z,7.20
2022-11-12T01:37:18.563Z,7.20
2022-11-12T01:39:45.495Z,7.10
2022-11-12T01:42:12.459Z,7.10
2022-11-12T01:44:44.280Z,7.10
2022-11-12T01:47:25.477Z,7.00
2022-11-12T01:50:20.394Z,7.00
2022-11-12T01:52:52.162Z,6.90
2022-11-12T01:55:31.341Z,7.00
2022-11-12T01:58:07.914Z,7.00
2022-11-12T02:00:35.328Z,7.10
2022-11-12T02:03:05.819Z,7.00
2022-11-12T02:05:33.901Z,7.10
2022-11-12T02:08:01.381Z,7.00
2022-11-12T02:10:28.485Z,6.90
2022-11-12T02:13:14.559Z,6.90
2022-11-12T02:15:43.691Z,6.90
2022-11-12T02:18:10.822Z,6.90
2022-11-12T02:20:39.033Z,6.80
2022-11-12T02:23:07.806Z,6.80
2022-11-12T02:25:35.662Z,6.80
2022-11-12T02:28:08.523Z,6.80
2022-11-12T02:30:40.024Z,6.80
2022-11-12T02:33:07.177Z,6.80
2022-11-12T02:35:34.546Z,6.80
2022-11-12T02:38:02.090Z,6.70
2022-11-12T02:40:29.260Z,6.70
2022-11-12T02:42:56.604Z,6.70
2022-11-12T02:45:23.628Z,6.60
2022-11-12T02:47:50.863Z,6.50
2022-11-12T02:50:18.689Z,6.50
2022-11-12T02:52:46.367Z,6.50
2022-11-12T02:55:13.613Z,6.50
2022-11-12T02:57:41.486Z,6.40
2022-11-12T03:00:11.122Z,6.40
2022-11-12T03:02:58.876Z,6.30
2022-11-12T03:05:34.623Z,6.40
2022-11-12T03:08:04.621Z,6.40
2022-11-12T03:10:32.209Z,6.40
2022-11-12T03:13:01.052Z,6.40
2022-11-12T03:15:29.656Z,6.50
2022-11-12T03:18:00.404Z,6.50
2022-11-12T03:20:28.197Z,6.50
2022-11-12T03:23:02.033Z,6.50
2022-11-12T03:25:29.894Z,6.50
2022-11-12T03:28:09.654Z,6.60
2022-11-12T03:30:39.276Z,6.60
2022-11-12T03:33:07.672Z,6.60
2022-11-12T03:35:35.933Z,6.60
2022-11-12T03:38:03.735Z,6.60
2022-11-12T03:40:31.560Z,6.60
2022-11-12T03:42:58.881Z,6.50
2022-11-12T03:45:27.618Z,6.50
2022-11-12T03:47:57.011Z,6.50
2022-11-12T03:50:26.877Z,6.50
2022-11-12T03:52:56.554Z,6.50
2022-11-12T03:55:25.313Z,6.50
2022-11-12T03:57:53.879Z,6.40
2022-11-12T04:00:22.500Z,6.40
2022-11-12T04:02:50.832Z,6.40
2022-11-12T04:05:37.131Z,6.40
2022-11-12T04:08:37.167Z,6.50
2022-11-12T04:11:13.036Z,6.50
2022-11-12T04:13:47.472Z,6.50
2022-11-12T04:16:38.757Z,6.50
2022-11-12T04:19:25.530Z,6.50
2022-11-12T04:21:55.085Z,6.50
2022-11-12T04:24:43.507Z,6.60
2022-11-12T04:27:15.852Z,6.60
2022-11-12T04:30:02.919Z,6.70
2022-11-12T04:32:30.690Z,6.60
2022-11-12T04:34:58.013Z,6.60
2022-11-12T04:37:27.065Z,6.70
2022-11-12T04:39:54.225Z,6.70
2022-11-12T04:42:40.112Z,6.60
2022-11-12T04:45:11.311Z,6.60
2022-11-12T04:47:40.754Z,6.70
2022-11-12T04:50:13.974Z,6.60
2022-11-12T04:52:40.981Z,6.60
2022-11-12T04:55:08.688Z,6.70
2022-11-12T04:57:36.192Z,6.60
2022-11-12T05:00:06.856Z,6.70
2022-11-12T05:02:33.869Z,6.70
2022-11-12T05:05:01.943Z,6.60
2022-11-12T05:07:29.083Z,6.60
2022-11-12T05:09:56.211Z,6.50
2022-11-12T05:12:23.183Z,6.50
2022-11-12T05:14:50.445Z,6.50
2022-11-12T05:17:17.758Z,6.60
2022-11-12T05:19:44.706Z,6.60
2022-11-12T05:22:33.294Z,6.60
2022-11-12T05:24:58.850Z,6.60
2022-11-12T05:27:25.902Z,6.70
2022-11-12T05:29:52.897Z,6.70
2022-11-12T05:32:19.828Z,6.70
2022-11-12T05:34:46.935Z,6.70
2022-11-12T05:37:14.990Z,6.80
2022-11-12T05:39:42.429Z,6.70
2022-11-12T05:42:13.497Z,6.70
2022-11-12T05:44:41.235Z,6.70
2022-11-12T05:47:08.460Z,6.70
2022-11-12T05:49:35.523Z,6.70
2022-11-12T05:52:02.636Z,6.70
2022-11-12T05:54:29.759Z,6.80
2022-11-12T05:56:56.601Z,6.80
2022-11-12T05:59:24.455Z,6.70
2022-11-12T06:01:51.717Z,6.70
2022-11-12T06:04:18.777Z,6.60
2022-11-12T06:06:45.993Z,6.70
2022-11-12T06:09:13.131Z,6.70
2022-11-12T06:11:42.480Z,6.60
2022-11-12T06:14:11.027Z,6.50
2022-11-12T06:16:38.490Z,6.60
2022-11-12T06:19:07.382Z,6.50
2022-11-12T06:21:34.542Z,6.50
2022-11-12T06:24:01.896Z,6.60
2022-11-12T06:26:34.395Z,6.60
2022-11-12T06:29:01.418Z,6.60
2022-11-12T06:31:28.598Z,6.50
2022-11-12T06:33:55.645Z,6.50
2022-11-12T06:36:22.770Z,6.50
2022-11-12T06:38:53.493Z,6.60
2022-11-12T06:41:20.653Z,6.60
2022-11-12T06:43:47.669Z,6.60
2022-11-12T06:46:16.534Z,6.70
2022-11-12T06:48:43.682Z,6.70
2022-11-12T06:51:17.936Z,6.70
2022-11-12T06:53:45.419Z,6.70
2022-11-12T06:56:13.423Z,6.70
2022-11-12T06:58:40.463Z,6.70
2022-11-12T07:01:16.161Z,6.80
2022-11-12T07:03:44.703Z,6.80
2022-11-12T07:06:19.092Z,6.80
2022-11-12T07:08:47.698Z,6.80
2022-11-12T07:11:14.732Z,6.80
2022-11-12T07:13:42.172Z,6.80
2022-11-12T07:16:11.262Z,6.80
2022-11-12T07:18:38.755Z,6.90
2022-11-12T07:21:11.298Z,6.90
2022-11-12T07:23:38.491Z,6.90
2022-11-12T07:26:07.924Z,6.90
2022-11-12T07:28:35.238Z,6.90
2022-11-12T07:31:07.784Z,6.90
2022-11-12T07:33:39.172Z,6.90
2022-11-12T07:36:11.236Z,6.90
2022-11-12T07:38:44.315Z,6.90
2022-11-12T07:41:17.195Z,7.00
2022-11-12T07:43:50.183Z,7.00
2022-11-12T07:46:32.730Z,7.10
2022-11-12T07:48:59.775Z,7.10
2022-11-12T07:51:29.478Z,7.10
2022-11-12T07:54:00.015Z,7.20
2022-11-12T07:56:27.855Z,7.20
2022-11-12T07:58:55.191Z,7.30
2022-11-12T08:01:26.078Z,7.30
2022-11-12T08:03:56.609Z,7.30
2022-11-12T08:06:23.844Z,7.40
2022-11-12T08:08:58.063Z,7.40
2022-11-12T08:11:25.502Z,7.50
2022-11-12T08:13:52.925Z,7.50
2022-11-12T08:16:20.033Z,7.50
2022-11-12T08:18:50.702Z,7.50
2022-11-12T08:21:19.579Z,7.60
2022-11-12T08:23:46.650Z,7.60
2022-11-12T08:26:15.955Z,7.60
2022-11-12T08:28:48.817Z,7.50
2022-11-12T08:31:18.801Z,7.60
2022-11-12T08:33:46.094Z,7.60
2022-11-12T08:36:18.615Z,7.60
2022-11-12T08:38:45.661Z,7.60
2022-11-12T08:41:14.694Z,7.60
2022-11-12T08:43:42.346Z,7.50
2022-11-12T08:46:14.502Z,7.50
2022-11-12T08:48:41.561Z,7.60
2022-11-12T08:51:09.112Z,7.70
2022-11-12T08:53:36.062Z,7.70
2022-11-12T08:56:09.581Z,7.70
2022-11-12T08:58:36.677Z,7.70
2022-11-12T09:01:08.462Z,7.70
2022-11-12T09:03:35.660Z,7.80
2022-11-12T09:06:04.798Z,7.90
2022-11-12T09:08:34.791Z,7.90
2022-11-12T09:11:01.906Z,7.90
2022-11-12T09:13:29.050Z,8.00
2022-11-12T09:16:05.370Z,7.90
2022-11-12T09:18:40.947Z,7.90
2022-11-12T09:21:12.039Z,7.80
2022-11-12T09:23:41.178Z,7.90
2022-11-12T09:26:08.223Z,7.90
2022-11-12T09:28:35.125Z,7.90
2022-11-12T09:31:02.831Z,7.90
2022-11-12T09:33:33.892Z,7.90
2022-11-12T09:36:02.712Z,8.00
2022-11-12T09:38:30.174Z,7.90
2022-11-12T09:41:14.634Z,8.00
2022-11-12T09:43:53.494Z,8.00
2022-11-12T09:46:31.563Z,8.00
2022-11-12T09:49:12.631Z,8.10
2022-11-12T09:51:51.813Z,8.20
2022-11-12T09:54:26.252Z,8.20
2022-11-12T09:56:54.470Z,8.20
2022-11-12T09:59:42.315Z,8.20
2022-11-12T10:02:51.778Z,8.20
2022-11-12T10:05:34.645Z,8.10
2022-11-12T10:08:30.746Z,8.20
2022-11-12T10:11:00.577Z,8.30
2022-11-12T10:13:53.530Z,8.20
2022-11-12T10:16:44.564Z,8.30
2022-11-12T10:19:38.909Z,8.30
2022-11-12T10:22:42.115Z,8.50
2022-11-12T10:25:18.309Z,8.40
2022-11-12T10:27:46.212Z,8.40
2022-11-12T10:30:19.126Z,8.40
2022-11-12T10:32:47.547Z,8.50
2022-11-12T10:35:22.813Z,8.40
2022-11-12T10:37:52.681Z,8.40
2022-11-12T10:40:28.547Z,8.50
2022-11-12T10:43:02.973Z,8.40
2022-11-12T10:45:30.769Z,8.40
2022-11-12T10:47:57.883Z,8.40
2022-11-12T10:50:41.070Z,8.30
2022-11-12T10:53:11.687Z,8.40
2022-11-12T10:55:56.687Z,8.50
2022-11-12T10:58:23.922Z,8.50
2022-11-12T11:01:03.168Z,8.50
2022-11-12T11:03:35.853Z,8.50
2022-11-12T11:06:04.935Z,8.60
2022-11-12T11:08:36.325Z,8.60
2022-11-12T11:11:30.614Z,8.50
2022-11-12T11:14:18.416Z,8.60
2022-11-12T11:16:54.202Z,8.60
2022-11-12T11:19:21.180Z,8.60
2022-11-12T11:21:51.174Z,8.60
2022-11-12T11:24:22.088Z,8.60
2022-11-12T11:27:08.951Z,8.70
2022-11-12T11:29:38.950Z,8.70
2022-11-12T11:32:27.685Z,8.60
2022-11-12T11:35:20.738Z,8.70
2022-11-12T11:38:08.527Z,8.80
2022-11-12T11:41:03.397Z,8.70
2022-11-12T11:44:01.748Z,8.70
2022-11-12T11:46:45.407Z,8.60
2022-11-12T11:49:37.042Z,8.70
2022-11-12T11:52:31.334Z,8.80
2022-11-12T11:55:37.287Z,8.80
2022-11-12T11:58:33.202Z,8.90
2022-11-12T12:01:27.943Z,8.90
2022-11-12T12:03:57.946Z,9.00
2022-11-12T12:06:29.334Z,8.90
2022-11-12T12:09:24.171Z,8.90
2022-11-12T12:12:38.853Z,8.80
2022-11-12T12:15:41.221Z,8.90
2022-11-12T12:18:35.962Z,8.90
2022-11-12T12:21:19.487Z,9.00
2022-11-12T12:23:58.157Z,9.00
2022-11-12T12:26:40.258Z,9.10
2022-11-12T12:29:13.212Z,9.20
2022-11-12T12:31:48.036Z,9.30
2022-11-12T12:34:18.943Z,9.30
2022-11-12T12:36:50.806Z,9.30
2022-11-12T12:39:37.982Z,9.20
2022-11-12T12:42:15.994Z,9.30
2022-11-12T12:45:00.816Z,9.30
2022-11-12T12:47:40.569Z,9.20
2022-11-12T12:50:16.932Z,9.30
2022-11-12T12:53:02.672Z,9.20
2022-11-12T12:55:52.533Z,9.20
2022-11-12T12:58:30.794Z,9.20
2022-11-12T13:01:10.573Z,9.20
2022-11-12T13:03:51.117Z,9.30
2022-11-12T13:06:25.670Z,9.40
2022-11-12T13:09:04.532Z,9.30
2022-11-12T13:12:00.683Z,9.20
2022-11-12T13:14:37.054Z,9.20
2022-11-12T13:17:05.269Z,9.20
2022-11-12T13:19:58.313Z,9.20
2022-11-12T13:22:25.408Z,9.20
2022-11-12T13:25:11.175Z,9.30
2022-11-12T13:27:49.012Z,9.30
2022-11-12T13:30:29.747Z,9.30
2022-11-12T13:33:09.033Z,9.40
2022-11-12T13:35:45.959Z,9.30
2022-11-12T13:38:17.138Z,9.30
2022-11-12T13:40:56.344Z,9.20
2022-11-12T13:43:42.720Z,9.30
2022-11-12T13:46:12.443Z,9.30
2022-11-12T13:48:46.590Z,9.30
2022-11-12T13:51:31.527Z,9.30
2022-11-12T13:53:58.840Z,9.30
2022-11-12T13:56:37.275Z,9.30
2022-11-12T13:59:33.778Z,9.30
2022-11-12T14:02:05.528Z,9.20
2022-11-12T14:04:32.773Z,9.20
2022-11-12T14:07:27.236Z,9.10
2022-11-12T14:10:11.815Z,9.20
2022-11-12T14:12:54.848Z,9.20
2022-11-12T14:16:03.382Z,9.20
2022-11-12T14:18:54.197Z,9.10
2022-11-12T14:21:21.592Z,9.20
2022-11-12T14:23:50.085Z,9.30
2022-11-12T14:26:38.873Z,9.20
2022-11-12T14:29:06.268Z,9.30
2022-11-12T14:31:33.672Z,9.40
2022-11-12T14:34:19.974Z,9.30
2022-11-12T14:36:47.923Z,9.40
2022-11-12T14:39:15.565Z,9.30
2022-11-12T14:41:46.015Z,9.30
2022-11-12T14:44:20.781Z,9.30
2022-11-12T14:46:54.122Z,9.30
2022-11-12T14:49:57.517Z,9.30
2022-11-12T14:52:35.424Z,9.20
2022-11-12T14:55:12.281Z,9.10
2022-11-12T14:57:40.147Z,9.00
2022-11-12T15:00:39.673Z,9.00
2022-11-12T15:03:11.039Z,9.00
2022-11-12T15:05:57.398Z,9.00
2022-11-12T15:08:36.567Z,8.90
2022-11-12T15:11:25.177Z,8.90
2022-11-12T15:13:56.480Z,8.90
2022-11-12T15:16:33.353Z,8.90
2022-11-12T15:19:18.676Z,9.00
2022-11-12T15:21:48.056Z,8.90
2022-11-12T15:24:49.184Z,8.90
2022-11-12T15:27:38.496Z,8.90
2022-11-12T15:30:26.427Z,8.80
2022-11-12T15:33:11.731Z,8.80
2022-11-12T15:35:44.403Z,8.80
2022-11-12T15:38:25.843Z,8.80
2022-11-12T15:40:57.658Z,8.70
2022-11-12T15:43:30.440Z,8.70
2022-11-12T15:45:57.552Z,8.60
2022-11-12T15:48:24.959Z,8.60
2022-11-12T15:50:51.871Z,8.60
2022-11-12T15:53:19.083Z,8.60
2022-11-12T15:55:46.626Z,8.50
2022-11-12T15:58:32.116Z,8.50
2022-11-12T16:00:59.590Z,8.40
2022-11-12T16:03:29.837Z,8.40
2022-11-12T16:05:57.082Z,8.50
2022-11-12T16:08:23.880Z,8.40
2022-11-12T16:10:50.812Z,8.40
2022-11-12T16:13:31.754Z,8.30
2022-11-12T16:15:59.113Z,8.30
2022-11-12T16:18:26.081Z,8.30
2022-11-12T16:20:52.932Z,8.30
2022-11-12T16:23:19.848Z,8.30
2022-11-12T16:25:47.157Z,8.30
2022-11-12T16:28:16.048Z,8.30
2022-11-12T16:30:43.841Z,8.20
2022-11-12T16:33:13.070Z,8.10
2022-11-12T16:35:40.775Z,8.10
2022-11-12T16:38:16.701Z,8.10
2022-11-12T16:40:44.654Z,8.00
2022-11-12T16:43:12.053Z,8.00
2022-11-12T16:45:41.513Z,8.00
2022-11-12T16:48:20.132Z,8.00
2022-11-12T16:50:47.240Z,8.00
2022-11-12T16:53:14.137Z,7.90
2022-11-12T16:55:41.579Z,8.00
2022-11-12T16:58:15.666Z,8.00
2022-11-12T17:00:45.965Z,7.90
2022-11-12T17:03:13.743Z,8.00
2022-11-12T17:05:40.852Z,8.00
2022-11-12T17:08:10.017Z,8.00
2022-11-12T17:10:37.186Z,8.00
2022-11-12T17:13:03.984Z,8.00
2022-11-12T17:15:30.890Z,8.00
2022-11-12T17:17:57.690Z,8.00
2022-11-12T17:20:25.115Z,8.00
2022-11-12T17:22:52.017Z,8.00
2022-11-12T17:25:19.177Z,8.00
2022-11-12T17:27:45.914Z,7.90
2022-11-12T17:30:13.157Z,7.90
2022-11-12T17:32:40.117Z,7.90
2022-11-12T17:35:07.430Z,7.90
2022-11-12T17:37:34.443Z,7.90
2022-11-12T17:40:01.370Z,7.90
2022-11-12T17:42:28.201Z,8.00
2022-11-12T17:44:55.038Z,8.00
2022-11-12T17:47:21.864Z,8.00
2022-11-12T17:49:48.593Z,8.00
2022-11-12T17:52:15.479Z,8.00
2022-11-12T17:54:42.430Z,8.00
2022-11-12T17:57:09.192Z,8.00
2022-11-12T17:59:35.942Z,8.00
2022-11-12T18:02:02.674Z,8.00
2022-11-12T18:04:31.008Z,7.90
2022-11-12T18:06:58.238Z,7.90
2022-11-12T18:09:25.393Z,7.90
2022-11-12T18:11:56.819Z,7.90
2022-11-12T18:14:24.564Z,7.90
2022-11-12T18:16:51.595Z,7.90
2022-11-12T18:19:18.672Z,7.90
2022-11-12T18:21:45.972Z,7.90
2022-11-12T18:24:15.708Z,7.90
2022-11-12T18:26:44.203Z,7.90
2022-11-12T18:29:12.666Z,7.90
2022-11-12T18:31:40.719Z,7.80
2022-11-12T18:34:11.042Z,7.90
2022-11-12T18:36:37.922Z,7.90
2022-11-12T18:39:05.325Z,7.90
2022-11-12T18:41:34.040Z,7.90
2022-11-12T18:44:01.571Z,7.90
2022-11-12T18:46:28.485Z,8.00
2022-11-12T18:48:55.853Z,8.00
2022-11-12T18:51:22.779Z,8.00
2022-11-12T18:53:49.760Z,8.00
2022-11-12T18:56:19.546Z,8.00
2022-11-12T18:58:46.995Z,8.10
2022-11-12T19:01:16.960Z,8.00
2022-11-12T19:03:44.441Z,8.00
2022-11-12T19:06:13.912Z,8.00
2022-11-12T19:08:41.088Z,7.90
2022-11-12T19:11:10.696Z,8.10
2022-11-12T19:13:38.339Z,8.00
2022-11-12T19:16:14.285Z,8.00
2022-11-12T19:18:42.004Z,8.00
2022-11-12T19:21:13.618Z,8.10
2022-11-12T19:23:42.317Z,8.10
2022-11-12T19:26:12.441Z,8.10
2022-11-12T19:28:39.933Z,8.10
2022-11-12T19:31:18.017Z,8.00
2022-11-12T19:33:45.317Z,8.10
2022-11-12T19:36:14.607Z,8.10
2022-11-12T19:38:41.556Z,8.10
2022-11-12T19:41:19.018Z,8.10
2022-11-12T19:43:47.268Z,8.10
2022-11-12T19:46:15.307Z,8.10
2022-11-12T19:48:42.178Z,8.00
2022-11-12T19:51:11.373Z,8.00
2022-11-12T19:53:44.701Z,8.00
2022-11-12T19:56:13.975Z,8.00
2022-11-12T19:58:45.119Z,8.00
2022-11-12T20:01:14.322Z,8.00
2022-11-12T20:03:41.820Z,7.90
2022-11-12T20:06:21.126Z,7.90
2022-11-12T20:08:47.996Z,7.90
2022-11-12T20:11:16.372Z,8.00
2022-11-12T20:13:43.180Z,8.00
2022-11-12T20:16:13.272Z,8.00
2022-11-12T20:18:40.634Z,7.90
2022-11-12T20:21:09.348Z,7.90
2022-11-12T20:23:37.227Z,7.90
2022-11-12T20:26:12.408Z,7.90
2022-11-12T20:28:40.969Z,7.90
2022-11-12T20:31:14.492Z,7.80
2022-11-12T20:33:42.757Z,7.80
2022-11-12T20:36:12.158Z,7.70
2022-11-12T20:38:40.724Z,7.70
2022-11-12T20:41:11.376Z,7.80
2022-11-12T20:43:38.321Z,7.70
2022-11-12T20:46:05.386Z,7.70
2022-11-12T20:48:32.276Z,7.80
2022-11-12T20:51:23.862Z,7.70
2022-11-12T20:53:59.952Z,7.70
2022-11-12T20:56:29.935Z,7.70
2022-11-12T20:58:57.878Z,7.80
2022-11-12T21:01:26.181Z,7.70
2022-11-12T21:03:53.963Z,7.60
2022-11-12T21:06:23.276Z,7.60
2022-11-12T21:08:50.559Z,7.50
2022-11-12T21:11:19.503Z,7.50
2022-11-12T21:13:46.784Z,7.50
2022-11-12T21:16:14.673Z,7.50
2022-11-12T21:18:42.330Z,7.50
2022-11-12T21:21:14.528Z,7.50
2022-11-12T21:23:44.479Z,7.50
2022-11-12T21:26:16.917Z,7.50
2022-11-12T21:28:49.593Z,7.50
2022-11-12T21:31:20.113Z,7.50
2022-11-12T21:33:51.303Z,7.50
2022-11-12T21:36:20.215Z,7.50
2022-11-12T21:38:47.723Z,7.50
2022-11-12T21:41:19.176Z,7.50
2022-11-12T21:43:46.795Z,7.50
2022-11-12T21:46:17.398Z,7.40
2022-11-12T21:48:45.050Z,7.40
2022-11-12T21:51:14.319Z,7.40
2022-11-12T21:53:41.685Z,7.40
2022-11-12T21:56:12.408Z,7.40
2022-11-12T21:58:40.389Z,7.40
2022-11-12T22:01:11.151Z,7.40
2022-11-12T22:03:38.372Z,7.40
2022-11-12T22:06:06.323Z,7.40
2022-11-12T22:08:33.415Z,7.40
2022-11-12T22:11:02.911Z,7.40
2022-11-12T22:13:30.443Z,7.40
2022-11-12T22:15:58.239Z,7.40
2022-11-12T22:18:25.616Z,7.40
2022-11-12T22:20:57.597Z,7.40
2022-11-12T22:23:24.566Z,7.40
2022-11-12T22:25:52.244Z,7.30
2022-11-12T22:28:19.117Z,7.40
2022-11-12T22:30:45.896Z,7.40
2022-11-12T22:33:12.731Z,7.40
2022-11-12T22:35:39.593Z,7.40
2022-11-12T22:38:06.486Z,7.50
2022-11-12T22:40:33.557Z,7.50
2022-11-12T22:43:00.475Z,7.50
2022-11-12T22:45:27.478Z,7.50
2022-11-12T22:47:54.430Z,7.50
2022-11-12T22:50:21.549Z,7.40
2022-11-12T22:52:50.229Z,7.50
2022-11-12T22:55:17.407Z,7.50
2022-11-12T22:57:44.246Z,7.40
2022-11-12T23:00:12.568Z,7.40
2022-11-12T23:02:44.709Z,7.40
2022-11-12T23:05:14.390Z,7.50
2022-11-12T23:07:41.181Z,7.40
2022-11-12T23:10:08.749Z,7.30
2022-11-12T23:12:35.539Z,7.30
2022-11-12T23:15:02.784Z,7.40
2022-11-12T23:17:29.841Z,7.50
2022-11-12T23:19:56.700Z,7.40
2022-11-12T23:22:23.652Z,7.50
2022-11-12T23:24:50.677Z,7.50
2022-11-12T23:27:17.495Z,7.50
2022-11-12T23:29:44.363Z,7.40
2022-11-12T23:32:11.691Z,7.40
2022-11-12T23:34:38.502Z,7.40
2022-11-12T23:37:05.552Z,7.50
2022-11-12T23:39:32.534Z,7.50
2022-11-12T23:41:59.373Z,7.50
2022-11-12T23:44:26.231Z,7.50
2022-11-12T23:46:53.211Z,7.40
2022-11-12T23:49:20.245Z,7.40
2022-11-12T23:51:47.264Z,7.40
2022-11-12T23:54:14.199Z,7.40
2022-11-12T23:56:41.029Z,7.40
2022-11-12T23:59:07.888Z,7.50
